Terminal Aerodrome Forecast
Issued by NWS Portland, OR

Home | Current Version | Previous Version | Text Only | Print | Product List | Glossary On
Versions: 1 2 3 4 5 6 7 8 9 10 11 12 13 14 15 16 17 18 19 20 21 22 23 24 25 26 27 28 29 30 31 32
597
FTUS46 KPQR 230520
TAFTTD
TAF
KTTD 230520Z 2306/2406 VRB03KT P6SM SCT035 BKN050
     FM231100 10004KT P6SM BKN025 BKN045
     FM231800 10009KT P6SM SCT030 SCT150 OVC250
     FM232300 10012KT P6SM BKN045 OVC090
     FM240100 09015KT P6SM -RA SCT025 BKN035 OVC045=

USA.gov is the U.S. government's official web portal to all federal, state and local government web resources and services.